Time;durP1;ratioP1;P1;durP2;ratioP2;P2;SDS_P1;SDS_P2;PMS_P1;PMS_P2;Temp;Humidity;BMP_temperature;BMP_pressure;BME280_temperature;BME280_humidity;BME280_pressure;Samples;Min_cycle;Max_cycle;Signal;HPM_P1;HPM_P2
2021/04/02 00:00:37;;;;;;;4.00;1.50;;;8.60;99.90;;;;;;5025061;27;20255;-68
2021/04/02 00:03:21;;;;;;;3.00;1.20;;;8.70;99.90;;;;;;5029603;27;20233;-68
2021/04/02 00:05:49;;;;;;;3.47;1.30;;;8.70;99.90;;;;;;5034591;27;20200;-68
2021/04/02 00:08:15;;;;;;;5.43;1.27;;;8.70;99.90;;;;;;5019338;27;20271;-67
2021/04/02 00:10:53;;;;;;;4.80;1.23;;;8.70;99.90;;;;;;5026416;28;20217;-68
2021/04/02 00:13:22;;;;;;;5.80;1.33;;;8.70;99.90;;;;;;5039807;27;20195;-69
2021/04/02 00:15:50;;;;;;;4.23;1.30;;;8.80;99.90;;;;;;5021816;28;20194;-69
2021/04/02 00:18:17;;;;;;;3.60;1.40;;;8.80;99.90;;;;;;5021402;27;20208;-68
2021/04/02 00:20:44;;;;;;;3.30;1.40;;;8.80;99.90;;;;;;5027619;27;20187;-68
2021/04/02 00:23:11;;;;;;;3.20;1.10;;;8.80;99.90;;;;;;5018489;27;20189;-65
2021/04/02 00:25:38;;;;;;;3.03;1.20;;;8.80;99.90;;;;;;5028374;27;20202;-68
2021/04/02 00:28:07;;;;;;;2.87;1.40;;;8.80;99.90;;;;;;4999818;28;20234;-67
2021/04/02 00:30:55;;;;;;;3.17;1.40;;;8.80;99.90;;;;;;5108333;27;20204;-69
2021/04/02 00:33:28;;;;;;;2.20;1.33;;;8.80;99.90;;;;;;5019615;28;20212;-67
2021/04/02 00:35:55;;;;;;;4.67;1.33;;;8.80;99.90;;;;;;5016936;27;20970;-68
2021/04/02 00:38:22;;;;;;;5.17;1.33;;;8.80;99.90;;;;;;5014478;27;20188;-68
2021/04/02 00:40:57;;;;;;;3.13;1.57;;;8.80;99.90;;;;;;5025616;27;20695;-67
2021/04/02 00:43:30;;;;;;;2.93;1.43;;;8.80;99.90;;;;;;5057181;27;20279;-68
2021/04/02 00:45:57;;;;;;;4.33;1.20;;;8.80;99.90;;;;;;5032808;27;20193;-67
2021/04/02 00:48:23;;;;;;;3.97;1.60;;;8.80;99.90;;;;;;5037262;27;20192;-67
2021/04/02 00:51:07;;;;;;;3.37;1.33;;;8.70;99.90;;;;;;5032597;27;20216;-67
2021/04/02 00:53:41;;;;;;;4.37;1.50;;;8.70;99.90;;;;;;5034764;27;20249;-67
2021/04/02 00:56:12;;;;;;;3.30;1.37;;;8.80;99.90;;;;;;5028254;27;20180;-67
2021/04/02 00:58:40;;;;;;;2.50;1.33;;;8.90;99.90;;;;;;5031774;27;20263;-67
2021/04/02 01:01:08;;;;;;;4.70;1.17;;;8.80;99.90;;;;;;5031883;27;20192;-67
2021/04/02 01:03:36;;;;;;;3.77;1.47;;;8.80;99.90;;;;;;5043509;27;20220;-67
2021/04/02 01:06:16;;;;;;;4.13;1.53;;;8.80;99.90;;;;;;5033122;27;20184;-67
2021/04/02 01:08:43;;;;;;;2.17;1.40;;;8.80;99.90;;;;;;5034341;27;20323;-67
2021/04/02 01:11:22;;;;;;;4.60;1.30;;;8.80;99.90;;;;;;5021095;27;20231;-67
2021/04/02 01:13:56;;;;;;;2.27;1.40;;;8.80;99.90;;;;;;5031677;27;20192;-67
2021/04/02 01:16:35;;;;;;;3.93;1.63;;;8.90;99.90;;;;;;5032795;27;20188;-67
2021/04/02 01:19:28;;;;;;;5.60;1.60;;;8.90;99.90;;;;;;5041860;27;20594;-68
2021/04/02 01:22:06;;;;;;;3.83;1.50;;;8.90;99.90;;;;;;5036004;27;20672;-68
2021/04/02 01:25:01;;;;;;;3.43;1.60;;;8.80;99.90;;;;;;5027551;27;20221;-68
2021/04/02 01:27:42;;;;;;;5.40;1.50;;;8.70;99.90;;;;;;5034928;27;20197;-68
2021/04/02 01:30:12;;;;;;;5.10;2.10;;;8.80;99.90;;;;;;5033204;27;20311;-68
2021/04/02 01:32:46;;;;;;;5.90;2.07;;;8.70;99.90;;;;;;5042341;27;20283;-68
2021/04/02 01:35:38;;;;;;;2.53;1.57;;;8.80;99.90;;;;;;5033498;27;20673;-68
2021/04/02 01:38:16;;;;;;;2.67;1.77;;;8.70;99.90;;;;;;5025905;27;20780;-68
2021/04/02 01:40:48;;;;;;;2.53;1.53;;;8.70;99.90;;;;;;5017383;27;20231;-68
2021/04/02 01:43:22;;;;;;;1.80;1.30;;;8.70;99.90;;;;;;5036199;27;20226;-68
2021/04/02 01:45:51;;;;;;;2.37;1.50;;;8.50;99.90;;;;;;5053095;27;20261;-68
2021/04/02 01:48:19;;;;;;;2.30;1.40;;;8.50;99.90;;;;;;5057731;27;20591;-67
2021/04/02 01:50:51;;;;;;;2.07;1.40;;;8.40;99.90;;;;;;5054210;27;20216;-68
2021/04/02 01:53:21;;;;;;;3.67;1.53;;;8.50;99.90;;;;;;5048448;27;20682;-67
2021/04/02 01:55:53;;;;;;;1.23;1.00;;;8.50;99.90;;;;;;5048935;27;20173;-67
2021/04/02 01:58:22;;;;;;;3.43;1.20;;;8.30;99.90;;;;;;5038360;27;20676;-69
2021/04/02 02:00:57;;;;;;;1.97;1.00;;;8.20;99.90;;;;;;5095037;27;20281;-69
2021/04/02 02:03:26;;;;;;;1.73;1.10;;;8.10;99.90;;;;;;5030904;27;20294;-70
2021/04/02 02:05:55;;;;;;;1.40;0.90;;;7.90;99.90;;;;;;5018799;27;20667;-69
2021/04/02 02:08:24;;;;;;;1.90;1.30;;;7.80;99.90;;;;;;5047272;27;20185;-71
2021/04/02 02:11:06;;;;;;;3.13;1.13;;;7.80;99.90;;;;;;5037189;27;20571;-69
2021/04/02 02:13:33;;;;;;;1.57;1.03;;;7.70;99.90;;;;;;5029160;27;20209;-69
2021/04/02 02:16:05;;;;;;;2.73;1.20;;;7.70;99.90;;;;;;5044182;27;20200;-71
2021/04/02 02:18:33;;;;;;;1.50;1.00;;;7.70;99.90;;;;;;5060563;27;20283;-69
2021/04/02 02:20:59;;;;;;;1.13;1.03;;;7.70;99.90;;;;;;5050512;27;20811;-70
2021/04/02 02:23:26;;;;;;;2.93;1.30;;;7.60;99.90;;;;;;5019144;28;20225;-69
2021/04/02 02:25:53;;;;;;;3.13;1.20;;;7.60;99.90;;;;;;5027624;28;20362;-69
2021/04/02 02:28:19;;;;;;;1.30;1.10;;;7.60;99.90;;;;;;5017016;27;20195;-69
2021/04/02 02:30:46;;;;;;;2.33;1.20;;;7.50;99.90;;;;;;5015421;28;20311;-69
2021/04/02 02:33:13;;;;;;;2.27;1.17;;;7.50;99.90;;;;;;5006115;28;20683;-69
2021/04/02 02:35:42;;;;;;;1.40;1.07;;;7.40;99.90;;;;;;5024222;28;20211;-68
2021/04/02 02:38:10;;;;;;;1.87;1.10;;;7.50;99.90;;;;;;5019974;28;20214;-71
2021/04/02 02:40:38;;;;;;;2.30;1.13;;;7.30;99.90;;;;;;4997551;28;20212;-71
2021/04/02 02:43:05;;;;;;;1.77;1.47;;;7.20;99.90;;;;;;4999538;28;20196;-68
2021/04/02 02:45:34;;;;;;;3.07;1.20;;;7.30;99.90;;;;;;5017628;28;20196;-69
2021/04/02 02:48:02;;;;;;;2.83;1.23;;;7.40;99.90;;;;;;5019449;28;20214;-69
2021/04/02 02:50:34;;;;;;;2.50;1.37;;;7.30;99.90;;;;;;5022354;28;20230;-69
2021/04/02 02:53:03;;;;;;;3.23;1.30;;;7.30;99.90;;;;;;5020734;28;20188;-72
2021/04/02 02:55:34;;;;;;;3.13;1.30;;;7.20;99.90;;;;;;5016770;28;20712;-71
2021/04/02 02:58:03;;;;;;;5.20;1.50;;;7.10;99.90;;;;;;5019206;28;20203;-72
2021/04/02 03:00:36;;;;;;;1.87;1.37;;;7.10;99.90;;;;;;5018764;28;20206;-67
2021/04/02 03:03:10;;;;;;;1.43;1.10;;;7.10;99.90;;;;;;5019203;28;20905;-70
2021/04/02 03:05:38;;;;;;;5.97;1.27;;;6.90;99.90;;;;;;5016751;28;20203;-70
2021/04/02 03:08:08;;;;;;;3.83;1.40;;;6.80;99.90;;;;;;5018071;28;20552;-70
2021/04/02 03:10:37;;;;;;;3.57;1.30;;;6.90;99.90;;;;;;5011618;28;20632;-70
2021/04/02 03:13:06;;;;;;;1.67;1.00;;;6.90;99.90;;;;;;5011392;28;20928;-70
2021/04/02 03:15:34;;;;;;;7.60;1.30;;;7.00;99.90;;;;;;5018620;28;20192;-70
2021/04/02 03:18:06;;;;;;;2.40;1.23;;;7.10;99.90;;;;;;5020067;28;20192;-70
2021/04/02 03:20:36;;;;;;;1.43;1.00;;;7.10;99.90;;;;;;5020517;28;20197;-70
2021/04/02 03:23:06;;;;;;;1.27;1.07;;;7.10;99.90;;;;;;5030523;27;20226;-70
2021/04/02 03:25:35;;;;;;;1.30;1.20;;;7.10;99.90;;;;;;5020645;28;20722;-68
2021/04/02 03:28:04;;;;;;;1.63;1.20;;;7.20;99.90;;;;;;5018806;28;20675;-68
2021/04/02 03:30:32;;;;;;;1.93;1.20;;;7.20;99.90;;;;;;5017438;28;20220;-68
2021/04/02 03:33:09;;;;;;;2.13;1.17;;;7.30;99.90;;;;;;5100426;28;20188;-68
2021/04/02 03:35:38;;;;;;;2.40;1.50;;;7.30;99.90;;;;;;5037104;28;20690;-68
2021/04/02 03:38:10;;;;;;;2.70;1.33;;;7.50;99.90;;;;;;5028980;28;20245;-68
2021/04/02 03:40:38;;;;;;;2.53;1.30;;;6.00;99.90;;;;;;5015533;28;20575;-67
2021/04/02 03:43:07;;;;;;;3.97;1.30;;;7.60;99.90;;;;;;5012869;28;20302;-68
2021/04/02 03:45:36;;;;;;;4.90;1.50;;;7.60;99.90;;;;;;5025150;28;20204;-68
2021/04/02 03:48:06;;;;;;;3.40;1.40;;;5.90;99.90;;;;;;5020482;28;20226;-67
2021/04/02 03:50:40;;;;;;;3.53;1.37;;;7.70;99.90;;;;;;5015058;28;20318;-67
2021/04/02 03:53:20;;;;;;;1.70;1.40;;;7.80;99.90;;;;;;5014119;28;20219;-67
2021/04/02 03:55:49;;;;;;;3.37;1.43;;;7.80;99.90;;;;;;5016346;28;20267;-67
2021/04/02 03:58:20;;;;;;;2.70;1.00;;;7.80;99.90;;;;;;5032341;28;20192;-67
2021/04/02 04:01:14;;;;;;;2.00;1.03;;;7.70;99.90;;;;;;5018118;28;21065;-68
2021/04/02 04:03:45;;;;;;;2.20;1.50;;;7.70;99.90;;;;;;5023109;28;20200;-67
2021/04/02 04:06:18;;;;;;;1.37;1.10;;;7.70;99.90;;;;;;5026920;28;20275;-68
2021/04/02 04:08:47;;;;;;;2.17;1.40;;;7.80;99.90;;;;;;5109572;27;20183;-68
2021/04/02 04:11:15;;;;;;;3.40;1.30;;;7.90;99.90;;;;;;5017431;28;20564;-68
2021/04/02 04:13:45;;;;;;;4.37;1.20;;;8.00;99.90;;;;;;5012870;28;20220;-68
2021/04/02 04:16:17;;;;;;;3.17;1.40;;;8.10;99.90;;;;;;5018637;28;20279;-68
2021/04/02 04:18:47;;;;;;;3.57;1.43;;;;;;;;;;5024112;28;20664;-67
2021/04/02 04:21:15;;;;;;;4.30;1.87;;;;;;;;;;5103593;27;20192;-68
2021/04/02 04:23:44;;;;;;;5.07;2.13;;;;;;;;;;5106165;27;20188;-68
2021/04/02 04:26:12;;;;;;;4.57;1.70;;;;;;;;;;5020157;28;20727;-68
2021/04/02 04:28:40;;;;;;;2.57;1.70;;;;;;;;;;5036664;28;20190;-68
2021/04/02 04:31:08;;;;;;;4.37;1.50;;;;;;;;;;5019032;28;20214;-68
2021/04/02 04:33:39;;;;;;;3.03;1.70;;;;;;;;;;5035516;27;20203;-68
2021/04/02 04:36:08;;;;;;;1.97;1.50;;;;;;;;;;5002186;28;20275;-68
2021/04/02 04:38:38;;;;;;;1.73;1.50;;;;;;;;;;5025036;28;20353;-68
2021/04/02 04:41:06;;;;;;;1.77;1.50;;;;;;;;;;5016274;28;20216;-68
2021/04/02 04:43:35;;;;;;;3.33;1.30;;;8.30;99.90;;;;;;5109572;27;20838;-68
2021/04/02 04:46:03;;;;;;;4.40;1.60;;;8.30;99.90;;;;;;5017306;27;20564;-70
2021/04/02 04:48:30;;;;;;;3.47;1.50;;;8.50;99.90;;;;;;5017778;28;20230;-68
2021/04/02 04:50:58;;;;;;;1.57;1.40;;;8.40;99.90;;;;;;5016357;28;20297;-68
2021/04/02 04:53:32;;;;;;;2.87;1.47;;;8.40;99.90;;;;;;5021085;28;20822;-67
2021/04/02 04:56:03;;;;;;;1.30;1.20;;;8.40;99.90;;;;;;4998721;28;20223;-68
2021/04/02 04:58:34;;;;;;;3.20;1.37;;;8.40;99.90;;;;;;5019567;28;20196;-68
2021/04/02 05:01:08;;;;;;;2.80;1.30;;;8.50;99.90;;;;;;5021083;28;20329;-69
2021/04/02 05:03:36;;;;;;;1.77;1.20;;;8.40;99.90;;;;;;5023279;28;20218;-69
2021/04/02 05:06:07;;;;;;;2.37;1.40;;;8.50;99.90;;;;;;5019000;28;20358;-69
2021/04/02 05:08:47;;;;;;;2.23;1.53;;;8.50;99.90;;;;;;5032086;27;20224;-68
2021/04/02 05:11:18;;;;;;;2.20;1.57;;;8.50;99.90;;;;;;5022653;28;20548;-68
2021/04/02 05:13:47;;;;;;;1.70;1.40;;;8.50;99.90;;;;;;5019552;28;20400;-68
2021/04/02 05:16:14;;;;;;;1.60;1.27;;;8.60;99.90;;;;;;5016399;28;20562;-68
2021/04/02 05:18:42;;;;;;;3.50;1.50;;;8.60;99.90;;;;;;5018526;28;20193;-67
2021/04/02 05:21:08;;;;;;;2.30;1.70;;;;;;;;;;5018344;28;20205;-67
2021/04/02 05:23:35;;;;;;;1.63;1.40;;;8.70;99.90;;;;;;5019514;28;20767;-67
2021/04/02 05:26:02;;;;;;;2.40;1.10;;;;;;;;;;5027402;28;20532;-68
2021/04/02 05:28:29;;;;;;;3.40;1.43;;;;;;;;;;5017173;28;20246;-67
2021/04/02 05:30:55;;;;;;;2.33;1.50;;;;;;;;;;5102058;27;20277;-69
2021/04/02 05:33:22;;;;;;;2.43;1.43;;;9.00;99.90;;;;;;5024019;27;20184;-70
2021/04/02 05:35:48;;;;;;;2.03;1.67;;;9.10;99.90;;;;;;5019046;27;20283;-70
2021/04/02 05:38:14;;;;;;;3.40;1.80;;;9.30;99.90;;;;;;5033357;27;20233;-70
2021/04/02 05:40:41;;;;;;;1.90;1.40;;;9.40;99.90;;;;;;5036931;27;20748;-70
2021/04/02 05:43:46;;;;;;;3.70;1.87;;;9.40;99.90;;;;;;5025954;27;20233;-70
2021/04/02 05:46:14;;;;;;;3.53;1.53;;;9.50;99.90;;;;;;5011019;28;20573;-70
2021/04/02 05:48:44;;;;;;;2.60;1.30;;;9.60;99.90;;;;;;5036839;27;20283;-71
2021/04/02 05:51:12;;;;;;;3.23;1.60;;;9.50;99.90;;;;;;5017948;27;20208;-71
2021/04/02 05:53:41;;;;;;;5.00;1.50;;;9.50;99.90;;;;;;5034170;27;20188;-69
2021/04/02 05:56:10;;;;;;;1.90;1.70;;;9.40;99.90;;;;;;5064566;27;20189;-69
2021/04/02 05:58:38;;;;;;;4.57;1.90;;;9.50;99.90;;;;;;5058041;27;20184;-69
2021/04/02 06:01:05;;;;;;;2.60;1.37;;;9.50;99.90;;;;;;5068589;27;20199;-67
2021/04/02 06:03:31;;;;;;;4.87;1.50;;;9.40;99.90;;;;;;5059646;27;20188;-67
2021/04/02 06:05:58;;;;;;;4.27;1.70;;;9.40;99.90;;;;;;5047229;27;20201;-68
2021/04/02 06:08:27;;;;;;;6.27;1.43;;;9.30;99.90;;;;;;5039499;27;20279;-70
2021/04/02 06:10:53;;;;;;;2.97;1.43;;;9.30;99.90;;;;;;5057371;27;20223;-73
2021/04/02 06:13:19;;;;;;;2.87;1.57;;;9.40;99.90;;;;;;5055103;27;20184;-70
2021/04/02 06:15:46;;;;;;;4.43;1.60;;;9.50;99.90;;;;;;5029289;27;20556;-71
2021/04/02 06:18:13;;;;;;;2.63;1.53;;;9.60;99.90;;;;;;5025940;27;20636;-72
2021/04/02 06:20:47;;;;;;;2.83;1.50;;;9.70;99.90;;;;;;5033523;27;20607;-72
2021/04/02 06:23:25;;;;;;;3.20;1.80;;;9.90;99.90;;;;;;5013380;27;20193;-71
2021/04/02 06:26:02;;;;;;;1.90;1.40;;;9.90;99.90;;;;;;5068691;27;20192;-71
2021/04/02 06:28:37;;;;;;;4.23;1.40;;;10.00;99.90;;;;;;5042638;27;20547;-71
2021/04/02 06:31:16;;;;;;;5.83;1.50;;;10.00;99.90;;;;;;5052950;27;20287;-69
2021/04/02 06:33:50;;;;;;;3.03;1.40;;;10.10;99.90;;;;;;5039005;27;20250;-69
2021/04/02 06:36:28;;;;;;;3.07;1.50;;;10.20;99.90;;;;;;5044297;27;20284;-69
2021/04/02 06:38:59;;;;;;;4.27;1.87;;;10.20;99.90;;;;;;5033827;27;20206;-69
2021/04/02 06:41:27;;;;;;;3.80;1.67;;;10.30;99.90;;;;;;5043166;27;20211;-70
2021/04/02 06:44:00;;;;;;;2.30;1.47;;;10.40;99.90;;;;;;5050388;27;20204;-70
2021/04/02 06:46:34;;;;;;;2.90;1.30;;;10.40;99.90;;;;;;5043136;28;20249;-70
2021/04/02 06:49:17;;;;;;;3.70;1.40;;;10.40;99.90;;;;;;5027309;28;20691;-70
2021/04/02 06:51:47;;;;;;;3.37;1.30;;;10.30;99.90;;;;;;5018679;28;20220;-70
2021/04/02 06:54:16;;;;;;;5.60;1.70;;;10.30;99.90;;;;;;5049423;28;20204;-70
2021/04/02 06:56:55;;;;;;;2.20;1.13;;;10.30;99.90;;;;;;5052631;28;20192;-68
2021/04/02 06:59:25;;;;;;;5.00;1.33;;;10.60;99.90;;;;;;5062498;28;20192;-69
2021/04/02 07:01:57;;;;;;;3.63;1.47;;;10.90;99.90;;;;;;5037000;28;20200;-69
2021/04/02 07:04:25;;;;;;;2.67;1.40;;;11.00;99.90;;;;;;5046008;28;20184;-69
2021/04/02 07:06:53;;;;;;;5.00;1.47;;;11.00;99.90;;;;;;5053436;28;20235;-69
2021/04/02 07:09:23;;;;;;;3.97;1.50;;;10.90;99.90;;;;;;5045014;28;20188;-70
2021/04/02 07:11:57;;;;;;;9.50;2.27;;;10.80;99.90;;;;;;5061376;27;20216;-69
2021/04/02 07:14:24;;;;;;;8.47;3.03;;;10.90;99.90;;;;;;5045197;28;20204;-70
2021/04/02 07:16:52;;;;;;;17.50;2.83;;;10.60;99.90;;;;;;5038208;27;20188;-70
2021/04/02 07:19:19;;;;;;;5.33;2.30;;;10.50;99.90;;;;;;5039470;28;20566;-70
2021/04/02 07:21:49;;;;;;;4.90;2.00;;;10.00;99.90;;;;;;5033449;27;20204;-67
2021/04/02 07:24:19;;;;;;;3.87;2.10;;;9.90;99.90;;;;;;5048601;28;20192;-70
2021/04/02 07:26:48;;;;;;;4.20;1.97;;;9.90;99.90;;;;;;5040845;27;21351;-67
2021/04/02 07:29:20;;;;;;;3.33;1.77;;;9.80;99.90;;;;;;5049868;28;20192;-67
2021/04/02 07:31:49;;;;;;;2.83;1.50;;;9.70;99.90;;;;;;5039491;28;20336;-67
2021/04/02 07:34:17;;;;;;;3.23;1.80;;;9.60;99.90;;;;;;5055086;28;20297;-67
2021/04/02 07:36:47;;;;;;;2.23;1.33;;;9.60;99.90;;;;;;5042150;28;20203;-69
2021/04/02 07:39:19;;;;;;;2.53;1.60;;;9.50;99.90;;;;;;5048706;27;20730;-71
2021/04/02 07:41:56;;;;;;;3.57;1.90;;;9.60;99.90;;;;;;5040418;27;20188;-71
2021/04/02 07:44:23;;;;;;;3.70;1.83;;;9.70;99.90;;;;;;5022813;27;20188;-69
2021/04/02 07:47:08;;;;;;;3.30;2.10;;;9.70;99.90;;;;;;5048578;27;20219;-69
2021/04/02 07:50:01;;;;;;;2.63;1.80;;;9.90;99.90;;;;;;5105714;27;20291;-71
2021/04/02 07:52:35;;;;;;;3.10;1.43;;;10.10;99.90;;;;;;5035041;27;20196;-70
2021/04/02 07:55:19;;;;;;;2.30;1.37;;;10.10;99.90;;;;;;5110450;27;20231;-70
2021/04/02 07:58:06;;;;;;;1.70;1.20;;;10.20;99.90;;;;;;5043497;27;20176;-70
2021/04/02 08:00:36;;;;;;;2.77;1.67;;;10.10;99.90;;;;;;5036169;27;20185;-69
2021/04/02 08:03:18;;;;;;;4.27;2.17;;;10.30;99.90;;;;;;5036293;27;20589;-69
2021/04/02 08:05:59;;;;;;;3.47;2.00;;;10.50;99.90;;;;;;5050272;27;20677;-70
2021/04/02 08:08:38;;;;;;;3.17;1.93;;;10.60;99.90;;;;;;5110815;27;20884;-70
2021/04/02 08:11:37;;;;;;;9.30;1.90;;;10.70;99.90;;;;;;5042771;27;20904;-70
2021/04/02 08:14:11;;;;;;;2.53;1.67;;;10.60;99.90;;;;;;5036016;27;20502;-68
2021/04/02 08:16:57;;;;;;;2.27;1.53;;;10.50;99.90;;;;;;5051012;27;20172;-70
2021/04/02 08:19:29;;;;;;;3.70;1.70;;;10.50;99.90;;;;;;5031202;27;20207;-69
2021/04/02 08:22:01;;;;;;;4.07;1.80;;;10.60;99.90;;;;;;5020905;27;20275;-69
2021/04/02 08:24:37;;;;;;;2.47;1.80;;;10.80;99.90;;;;;;5052006;27;20184;-70
2021/04/02 08:27:05;;;;;;;4.63;1.70;;;11.10;99.90;;;;;;5014853;28;20236;-70
2021/04/02 08:29:34;;;;;;;4.33;1.70;;;11.00;99.90;;;;;;5046105;27;20575;-69
2021/04/02 08:32:07;;;;;;;6.23;1.80;;;10.90;99.90;;;;;;5036165;27;20281;-69
2021/04/02 08:34:36;;;;;;;4.43;1.50;;;11.00;99.90;;;;;;5034774;27;20643;-69
2021/04/02 08:37:10;;;;;;;2.53;1.70;;;10.90;99.90;;;;;;5022741;27;20176;-69
2021/04/02 08:39:38;;;;;;;6.87;1.90;;;10.90;99.90;;;;;;5022884;27;20663;-69
2021/04/02 08:42:08;;;;;;;2.37;1.37;;;11.10;99.90;;;;;;5077910;27;20181;-71
2021/04/02 08:44:46;;;;;;;7.73;1.53;;;11.20;99.90;;;;;;5040277;27;20195;-71
2021/04/02 08:47:18;;;;;;;2.47;1.50;;;11.20;99.90;;;;;;5042948;27;20730;-70
2021/04/02 08:49:52;;;;;;;1.80;1.63;;;11.30;99.90;;;;;;5057565;27;20200;-70
2021/04/02 08:52:28;;;;;;;4.90;3.00;;;11.50;99.90;;;;;;5038855;27;20181;-70
2021/04/02 08:55:01;;;;;;;1.80;1.10;;;11.80;99.90;;;;;;5038106;27;20176;-70
2021/04/02 08:57:32;;;;;;;4.93;1.20;;;11.60;99.90;;;;;;5026356;27;20242;-70
2021/04/02 09:00:09;;;;;;;1.83;1.20;;;11.50;99.90;;;;;;5031622;27;20210;-69
2021/04/02 09:02:37;;;;;;;2.70;1.30;;;11.30;99.90;;;;;;5041894;27;20668;-70
2021/04/02 09:05:08;;;;;;;4.77;1.30;;;11.40;99.90;;;;;;5035794;27;20278;-70
2021/04/02 09:07:42;;;;;;;2.47;1.10;;;11.50;99.90;;;;;;5031831;27;20211;-69
2021/04/02 09:10:16;;;;;;;2.20;1.03;;;11.60;99.90;;;;;;5031535;27;20192;-70
2021/04/02 09:12:48;;;;;;;4.17;1.53;;;11.60;99.90;;;;;;5040585;27;20266;-70
2021/04/02 09:15:26;;;;;;;5.27;1.00;;;11.50;99.90;;;;;;5050060;27;20219;-70
2021/04/02 09:17:53;;;;;;;5.70;1.10;;;11.50;99.90;;;;;;5040893;27;20194;-70
2021/04/02 09:20:20;;;;;;;2.90;1.50;;;11.40;99.90;;;;;;5043076;27;20197;-70
2021/04/02 09:22:47;;;;;;;3.60;1.30;;;11.40;99.90;;;;;;5044675;27;20238;-70
2021/04/02 09:25:18;;;;;;;3.63;1.30;;;11.40;99.90;;;;;;5033186;27;20203;-70
2021/04/02 09:27:44;;;;;;;5.97;1.20;;;11.50;99.90;;;;;;5052974;27;20188;-70
2021/04/02 09:30:27;;;;;;;1.80;1.00;;;11.90;99.90;;;;;;5036810;27;20192;-70
2021/04/02 09:32:54;;;;;;;1.23;0.90;;;12.10;99.90;;;;;;5040127;27;20184;-70
2021/04/02 09:35:21;;;;;;;1.40;1.00;;;12.10;99.90;;;;;;5025901;27;20188;-71
2021/04/02 09:37:52;;;;;;;4.23;1.00;;;12.00;99.90;;;;;;5037877;27;20195;-69
2021/04/02 09:40:18;;;;;;;2.77;1.40;;;12.00;99.90;;;;;;5028361;27;20220;-69
2021/04/02 09:42:48;;;;;;;2.07;0.73;;;12.00;99.90;;;;;;5047077;27;20204;-70
2021/04/02 09:45:15;;;;;;;1.27;0.83;;;12.10;99.90;;;;;;5055338;27;20312;-70
2021/04/02 09:47:46;;;;;;;0.80;0.70;;;12.20;99.90;;;;;;5041877;27;20199;-70
2021/04/02 09:50:17;;;;;;;0.80;0.67;;;12.50;99.90;;;;;;5027667;27;20196;-71
2021/04/02 09:52:45;;;;;;;0.80;0.60;;;12.90;99.90;;;;;;5048711;27;20345;-71
2021/04/02 09:55:13;;;;;;;2.33;0.70;;;12.80;99.90;;;;;;5021813;27;20199;-71
2021/04/02 09:57:40;;;;;;;3.23;0.70;;;12.80;99.90;;;;;;5048586;27;20590;-71
2021/04/02 10:00:13;;;;;;;1.73;0.93;;;12.80;99.90;;;;;;5036060;27;20183;-72
2021/04/02 10:02:40;;;;;;;4.43;0.70;;;12.70;99.90;;;;;;5035120;27;20192;-68
2021/04/02 10:05:08;;;;;;;0.67;0.40;;;12.70;99.90;;;;;;5040287;27;20188;-68
2021/04/02 10:07:35;;;;;;;1.53;0.73;;;12.70;99.90;;;;;;5037452;27;20195;-69
2021/04/02 10:10:02;;;;;;;1.80;0.80;;;12.60;99.90;;;;;;5035964;27;20192;-69
2021/04/02 10:12:29;;;;;;;1.77;0.70;;;12.80;99.90;;;;;;5044014;27;20817;-69
2021/04/02 10:14:56;;;;;;;0.60;0.60;;;13.00;99.90;;;;;;5038053;27;20264;-69
2021/04/02 10:17:26;;;;;;;7.93;0.90;;;13.10;99.90;;;;;;5035104;27;20196;-68
2021/04/02 10:19:54;;;;;;;4.53;0.77;;;13.30;99.90;;;;;;5047553;27;20188;-69
2021/04/02 10:22:21;;;;;;;3.87;0.60;;;13.40;99.90;;;;;;5036839;27;20668;-68
2021/04/02 10:24:48;;;;;;;0.80;0.67;;;13.30;99.90;;;;;;5034267;27;20197;-68
2021/04/02 10:27:15;;;;;;;2.00;0.70;;;13.30;99.90;;;;;;5036813;27;20196;-68
2021/04/02 10:29:42;;;;;;;1.27;0.50;;;13.70;99.90;;;;;;5034834;27;20196;-68
2021/04/02 10:32:08;;;;;;;2.43;0.70;;;14.10;99.90;;;;;;5048310;27;20304;-68
2021/04/02 10:34:35;;;;;;;1.17;0.50;;;14.00;99.90;;;;;;5043574;27;20203;-70
2021/04/02 10:37:02;;;;;;;1.37;0.70;;;13.80;99.90;;;;;;5045565;27;20219;-69
2021/04/02 10:39:28;;;;;;;1.80;0.60;;;13.90;99.90;;;;;;5025048;28;20240;-70
2021/04/02 10:41:54;;;;;;;3.70;0.80;;;14.10;99.90;;;;;;5048458;27;20545;-67
2021/04/02 10:44:20;;;;;;;1.63;0.77;;;14.10;99.90;;;;;;5032558;27;20199;-69
2021/04/02 10:46:46;;;;;;;2.93;1.00;;;14.20;99.90;;;;;;5040095;27;20197;-67
2021/04/02 10:49:13;;;;;;;2.30;0.57;;;14.40;99.90;;;;;;5038650;27;20208;-67
2021/04/02 10:51:39;;;;;;;2.00;0.70;;;14.30;99.90;;;;;;5043418;28;20208;-70
2021/04/02 10:54:05;;;;;;;2.17;0.70;;;14.20;99.90;;;;;;5032009;28;20188;-68
2021/04/02 10:56:33;;;;;;;1.67;0.83;;;14.40;99.90;;;;;;5028589;28;20759;-70
2021/04/02 10:59:00;;;;;;;1.47;0.90;;;14.30;99.90;;;;;;5050341;28;20180;-69
2021/04/02 11:01:27;;;;;;;2.13;0.80;;;13.90;99.90;;;;;;5024532;28;20242;-67
2021/04/02 11:03:53;;;;;;;1.60;0.83;;;13.60;99.90;;;;;;5051674;28;20193;-68
2021/04/02 11:06:20;;;;;;;2.60;0.77;;;13.40;99.90;;;;;;5044963;28;20188;-69
2021/04/02 11:08:46;;;;;;;2.23;0.67;;;13.30;99.90;;;;;;5022807;28;20534;-69
2021/04/02 11:11:13;;;;;;;1.97;0.80;;;13.10;99.90;;;;;;5050093;28;20621;-69
2021/04/02 11:13:39;;;;;;;1.83;0.77;;;13.20;99.90;;;;;;5055140;27;20647;-69
2021/04/02 11:16:06;;;;;;;2.73;0.80;;;13.50;99.90;;;;;;5044451;27;20195;-70
2021/04/02 11:18:32;;;;;;;3.90;0.90;;;13.40;99.90;;;;;;5058711;27;20196;-69
2021/04/02 11:20:59;;;;;;;1.70;0.70;;;13.20;99.90;;;;;;5056351;27;20196;-69
2021/04/02 11:23:26;;;;;;;6.43;0.97;;;13.10;99.90;;;;;;5053560;27;20196;-68
2021/04/02 11:25:52;;;;;;;1.40;0.77;;;13.20;99.90;;;;;;5058312;27;20185;-69
2021/04/02 11:28:19;;;;;;;2.63;0.70;;;13.40;99.90;;;;;;5045239;27;20232;-67
2021/04/02 11:30:45;;;;;;;3.20;1.00;;;13.20;99.90;;;;;;5046193;27;20680;-69
2021/04/02 11:33:11;;;;;;;1.97;0.90;;;13.10;99.90;;;;;;5045586;27;20200;-69
2021/04/02 11:35:38;;;;;;;6.50;0.97;;;13.00;99.90;;;;;;5039727;27;20180;-68
2021/04/02 11:38:04;;;;;;;7.77;1.00;;;12.80;99.90;;;;;;5025018;27;20180;-69
2021/04/02 11:40:31;;;;;;;1.67;0.80;;;12.60;99.90;;;;;;5031992;27;20268;-69
2021/04/02 11:42:58;;;;;;;1.23;0.70;;;12.60;99.90;;;;;;5036623;27;20192;-68
2021/04/02 11:45:24;;;;;;;1.83;0.80;;;12.70;99.90;;;;;;5040632;27;20276;-68
2021/04/02 11:47:51;;;;;;;1.27;1.00;;;12.80;99.90;;;;;;5046223;27;20219;-69
2021/04/02 11:50:17;;;;;;;1.00;0.60;;;12.70;99.90;;;;;;5029859;27;20592;-68
2021/04/02 11:52:44;;;;;;;1.70;0.67;;;12.70;99.90;;;;;;5027002;27;20570;-68
2021/04/02 11:55:12;;;;;;;1.07;0.67;;;12.60;99.90;;;;;;5052984;27;20711;-68
2021/04/02 11:57:38;;;;;;;1.10;0.67;;;12.60;99.90;;;;;;5024701;27;20196;-69
2021/04/02 12:00:11;;;;;;;4.90;0.90;;;12.60;99.90;;;;;;5044580;27;20211;-69
2021/04/02 12:02:39;;;;;;;3.37;0.87;;;12.60;99.90;;;;;;5056022;27;20807;-69
2021/04/02 12:05:07;;;;;;;4.20;1.37;;;12.80;99.90;;;;;;5055371;27;20265;-68
2021/04/02 12:07:33;;;;;;;2.50;0.60;;;13.10;99.90;;;;;;5057931;27;20203;-69
2021/04/02 12:10:00;;;;;;;2.43;0.70;;;13.10;99.90;;;;;;5051131;27;20656;-69
2021/04/02 12:12:26;;;;;;;0.80;0.60;;;13.00;99.90;;;;;;5061120;27;20192;-69
2021/04/02 12:14:52;;;;;;;0.93;0.70;;;12.80;99.90;;;;;;5030655;27;20267;-69
2021/04/02 12:17:19;;;;;;;0.57;0.40;;;12.80;99.90;;;;;;5032312;27;20173;-68
2021/04/02 12:19:45;;;;;;;1.67;0.70;;;12.90;99.90;;;;;;5010971;28;20242;-70
2021/04/02 12:22:11;;;;;;;2.17;0.90;;;12.80;99.90;;;;;;5025131;28;20193;-68
2021/04/02 12:24:37;;;;;;;1.97;0.60;;;12.90;99.90;;;;;;5025035;27;20656;-69
2021/04/02 12:27:06;;;;;;;1.67;0.70;;;12.90;99.90;;;;;;5015425;28;20193;-70
2021/04/02 12:29:33;;;;;;;0.60;0.50;;;12.90;99.90;;;;;;5016438;28;20195;-69
2021/04/02 12:32:00;;;;;;;5.10;0.90;;;12.90;99.90;;;;;;5027209;27;20219;-68
2021/04/02 12:34:26;;;;;;;1.43;0.60;;;12.90;99.90;;;;;;5019941;28;20641;-69
2021/04/02 12:36:52;;;;;;;1.50;0.60;;;12.90;99.90;;;;;;5029115;28;20185;-69
2021/04/02 12:39:18;;;;;;;1.50;0.60;;;12.70;99.90;;;;;;5023413;28;20173;-68
2021/04/02 12:41:45;;;;;;;3.07;0.90;;;12.80;99.90;;;;;;5020338;28;20270;-68
2021/04/02 12:44:11;;;;;;;3.43;0.63;;;12.70;99.90;;;;;;5020666;28;20200;-69
2021/04/02 12:46:38;;;;;;;2.27;0.70;;;12.70;99.90;;;;;;5014773;28;20819;-69
2021/04/02 12:49:04;;;;;;;1.63;0.70;;;12.60;99.90;;;;;;5111503;27;20660;-68
2021/04/02 12:51:30;;;;;;;3.60;0.80;;;12.50;99.90;;;;;;5058366;27;20544;-69
2021/04/02 12:53:56;;;;;;;4.90;0.93;;;12.50;99.90;;;;;;5032711;27;20177;-69
2021/04/02 12:56:23;;;;;;;1.10;0.80;;;12.50;99.90;;;;;;5017583;28;20564;-68
2021/04/02 12:58:49;;;;;;;3.50;0.90;;;12.80;99.90;;;;;;5038524;27;20589;-69
2021/04/02 13:01:16;;;;;;;2.00;0.67;;;12.90;99.90;;;;;;5040931;27;20177;-69
2021/04/02 13:03:42;;;;;;;1.63;0.63;;;12.90;99.90;;;;;;5024184;27;20192;-70
2021/04/02 13:06:08;;;;;;;2.37;0.83;;;12.80;99.90;;;;;;5057282;27;20188;-68
2021/04/02 13:08:35;;;;;;;1.50;0.67;;;12.80;99.90;;;;;;5059669;27;20200;-68
2021/04/02 13:11:02;;;;;;;0.50;0.50;;;12.70;99.90;;;;;;5059456;27;20203;-68